Terminal Aerodrome Forecast
Issued by NWS

Home | Current Version | Previous Version | Text Only | Print | Product List | Glossary On
Versions: 1 2 3 4 5 6 7 8 9 10 11 12
720
FTUS42 TJSJ 152320
TAFIST
TAF
TIST 152320Z 1600/1624 08010KT P6SM FEW025
     FM161400 05012G19KT P6SM FEW025
     FM162200 07009KT P6SM FEW030=

USA.gov is the U.S. government's official web portal to all federal, state and local government web resources and services.